sensor_id;sensor_type;location;lat;lon;timestamp;temperature;humidity
46037;DHT22;31769;49.304;8.428;2024-01-27T00:02:14;5.10;99.90
46037;DHT22;31769;49.304;8.428;2024-01-27T00:05:14;5.10;99.90
46037;DHT22;31769;49.304;8.428;2024-01-27T00:08:15;5.00;99.90
46037;DHT22;31769;49.304;8.428;2024-01-27T00:11:16;4.90;99.90
46037;DHT22;31769;49.304;8.428;2024-01-27T00:14:17;4.90;99.90
46037;DHT22;31769;49.304;8.428;2024-01-27T00:17:18;4.80;99.90
46037;DHT22;31769;49.304;8.428;2024-01-27T00:20:24;4.80;99.90
46037;DHT22;31769;49.304;8.428;2024-01-27T00:23:25;4.80;99.90
46037;DHT22;31769;49.304;8.428;2024-01-27T00:26:25;4.70;99.90
46037;DHT22;31769;49.304;8.428;2024-01-27T00:29:26;4.70;99.90
46037;DHT22;31769;49.304;8.428;2024-01-27T00:32:27;4.70;99.90
46037;DHT22;31769;49.304;8.428;2024-01-27T00:35:28;4.60;99.90
46037;DHT22;31769;49.304;8.428;2024-01-27T00:38:28;4.60;99.90
46037;DHT22;31769;49.304;8.428;2024-01-27T00:41:29;4.60;99.90
46037;DHT22;31769;49.304;8.428;2024-01-27T00:44:30;4.60;99.90
46037;DHT22;31769;49.304;8.428;2024-01-27T00:47:31;4.70;99.90
46037;DHT22;31769;49.304;8.428;2024-01-27T00:50:32;4.70;99.90
46037;DHT22;31769;49.304;8.428;2024-01-27T00:53:32;4.70;99.90
46037;DHT22;31769;49.304;8.428;2024-01-27T00:56:34;4.60;99.90
46037;DHT22;31769;49.304;8.428;2024-01-27T00:59:35;4.50;99.90
46037;DHT22;31769;49.304;8.428;2024-01-27T01:02:36;4.50;99.90
46037;DHT22;31769;49.304;8.428;2024-01-27T01:05:37;4.50;99.90
46037;DHT22;31769;49.304;8.428;2024-01-27T01:08:38;4.40;99.90
46037;DHT22;31769;49.304;8.428;2024-01-27T01:11:39;4.50;99.90
46037;DHT22;31769;49.304;8.428;2024-01-27T01:14:39;4.40;99.90
46037;DHT22;31769;49.304;8.428;2024-01-27T01:17:41;4.20;99.90
46037;DHT22;31769;49.304;8.428;2024-01-27T01:20:41;3.90;99.90
46037;DHT22;31769;49.304;8.428;2024-01-27T01:23:42;3.70;99.90
46037;DHT22;31769;49.304;8.428;2024-01-27T01:26:43;3.80;99.90
46037;DHT22;31769;49.304;8.428;2024-01-27T01:29:44;3.70;99.90
46037;DHT22;31769;49.304;8.428;2024-01-27T01:32:45;3.80;99.90
46037;DHT22;31769;49.304;8.428;2024-01-27T01:35:45;3.80;99.90
46037;DHT22;31769;49.304;8.428;2024-01-27T01:38:46;3.80;99.90
46037;DHT22;31769;49.304;8.428;2024-01-27T01:41:47;3.80;99.90
46037;DHT22;31769;49.304;8.428;2024-01-27T01:44:48;3.80;99.90
46037;DHT22;31769;49.304;8.428;2024-01-27T01:47:48;3.80;99.90
46037;DHT22;31769;49.304;8.428;2024-01-27T01:50:49;3.80;99.90
46037;DHT22;31769;49.304;8.428;2024-01-27T01:53:51;3.90;99.90
46037;DHT22;31769;49.304;8.428;2024-01-27T01:56:54;3.90;99.90
46037;DHT22;31769;49.304;8.428;2024-01-27T01:59:55;3.90;99.90
46037;DHT22;31769;49.304;8.428;2024-01-27T02:02:56;4.00;99.90
46037;DHT22;31769;49.304;8.428;2024-01-27T02:05:57;4.00;99.90
46037;DHT22;31769;49.304;8.428;2024-01-27T02:08:57;4.00;99.90
46037;DHT22;31769;49.304;8.428;2024-01-27T02:11:58;3.90;99.90
46037;DHT22;31769;49.304;8.428;2024-01-27T02:14:59;3.70;99.90
46037;DHT22;31769;49.304;8.428;2024-01-27T02:18:00;3.40;99.90
46037;DHT22;31769;49.304;8.428;2024-01-27T02:21:00;3.20;99.90
46037;DHT22;31769;49.304;8.428;2024-01-27T02:24:01;3.30;99.90
46037;DHT22;31769;49.304;8.428;2024-01-27T02:27:02;3.30;99.90
46037;DHT22;31769;49.304;8.428;2024-01-27T02:30:03;3.30;99.90
46037;DHT22;31769;49.304;8.428;2024-01-27T02:33:05;3.30;99.90
46037;DHT22;31769;49.304;8.428;2024-01-27T02:36:05;3.30;99.90
46037;DHT22;31769;49.304;8.428;2024-01-27T02:39:06;3.20;99.90
46037;DHT22;31769;49.304;8.428;2024-01-27T02:42:07;3.20;99.90
46037;DHT22;31769;49.304;8.428;2024-01-27T02:45:08;3.10;99.90
46037;DHT22;31769;49.304;8.428;2024-01-27T02:48:09;3.10;99.90
46037;DHT22;31769;49.304;8.428;2024-01-27T02:51:10;3.10;99.90
46037;DHT22;31769;49.304;8.428;2024-01-27T02:54:11;3.20;99.90
46037;DHT22;31769;49.304;8.428;2024-01-27T02:57:12;3.20;99.90
46037;DHT22;31769;49.304;8.428;2024-01-27T03:00:13;3.20;99.90
46037;DHT22;31769;49.304;8.428;2024-01-27T03:03:14;3.20;99.90
46037;DHT22;31769;49.304;8.428;2024-01-27T03:06:15;3.20;99.90
46037;DHT22;31769;49.304;8.428;2024-01-27T03:09:16;3.10;99.90
46037;DHT22;31769;49.304;8.428;2024-01-27T03:12:17;3.00;99.90
46037;DHT22;31769;49.304;8.428;2024-01-27T03:15:18;3.00;99.90
46037;DHT22;31769;49.304;8.428;2024-01-27T03:18:19;3.00;99.90
46037;DHT22;31769;49.304;8.428;2024-01-27T03:21:20;3.00;99.90
46037;DHT22;31769;49.304;8.428;2024-01-27T03:24:21;2.90;99.90
46037;DHT22;31769;49.304;8.428;2024-01-27T03:27:22;2.80;99.90
46037;DHT22;31769;49.304;8.428;2024-01-27T03:30:22;2.70;99.90
46037;DHT22;31769;49.304;8.428;2024-01-27T03:33:23;2.50;99.90
46037;DHT22;31769;49.304;8.428;2024-01-27T03:36:24;2.30;99.90
46037;DHT22;31769;49.304;8.428;2024-01-27T03:39:24;2.30;99.90
46037;DHT22;31769;49.304;8.428;2024-01-27T03:42:25;2.30;99.90
46037;DHT22;31769;49.304;8.428;2024-01-27T03:45:26;2.20;99.90
46037;DHT22;31769;49.304;8.428;2024-01-27T03:48:27;2.30;99.90
46037;DHT22;31769;49.304;8.428;2024-01-27T03:51:28;2.40;99.90
46037;DHT22;31769;49.304;8.428;2024-01-27T03:54:29;2.40;99.90
46037;DHT22;31769;49.304;8.428;2024-01-27T03:57:30;2.40;99.90
46037;DHT22;31769;49.304;8.428;2024-01-27T04:00:31;2.40;99.90
46037;DHT22;31769;49.304;8.428;2024-01-27T04:03:33;2.30;99.90
46037;DHT22;31769;49.304;8.428;2024-01-27T04:06:38;2.20;99.90
46037;DHT22;31769;49.304;8.428;2024-01-27T04:09:39;2.20;99.90
46037;DHT22;31769;49.304;8.428;2024-01-27T04:12:39;2.10;99.90
46037;DHT22;31769;49.304;8.428;2024-01-27T04:15:40;2.00;99.90
46037;DHT22;31769;49.304;8.428;2024-01-27T04:18:42;2.00;99.90
46037;DHT22;31769;49.304;8.428;2024-01-27T04:21:42;1.80;99.90
46037;DHT22;31769;49.304;8.428;2024-01-27T04:24:43;1.70;99.90
46037;DHT22;31769;49.304;8.428;2024-01-27T04:27:44;1.70;99.90
46037;DHT22;31769;49.304;8.428;2024-01-27T04:30:44;1.70;99.90
46037;DHT22;31769;49.304;8.428;2024-01-27T04:33:45;1.70;99.90
46037;DHT22;31769;49.304;8.428;2024-01-27T04:36:46;1.70;99.90
46037;DHT22;31769;49.304;8.428;2024-01-27T04:39:47;1.70;99.90
46037;DHT22;31769;49.304;8.428;2024-01-27T04:42:48;1.70;99.90
46037;DHT22;31769;49.304;8.428;2024-01-27T04:45:49;1.70;99.90
46037;DHT22;31769;49.304;8.428;2024-01-27T04:48:50;1.70;99.90
46037;DHT22;31769;49.304;8.428;2024-01-27T04:51:51;1.70;99.90
46037;DHT22;31769;49.304;8.428;2024-01-27T04:54:51;1.70;99.90
46037;DHT22;31769;49.304;8.428;2024-01-27T04:57:52;1.60;99.90
46037;DHT22;31769;49.304;8.428;2024-01-27T05:00:54;1.70;99.90
46037;DHT22;31769;49.304;8.428;2024-01-27T05:03:54;1.70;99.90
46037;DHT22;31769;49.304;8.428;2024-01-27T05:06:55;1.70;99.90
46037;DHT22;31769;49.304;8.428;2024-01-27T05:09:56;1.80;99.90
46037;DHT22;31769;49.304;8.428;2024-01-27T05:12:57;1.80;99.90
46037;DHT22;31769;49.304;8.428;2024-01-27T05:15:57;1.80;99.90
46037;DHT22;31769;49.304;8.428;2024-01-27T05:18:58;1.80;99.90
46037;DHT22;31769;49.304;8.428;2024-01-27T05:21:59;1.80;99.90
46037;DHT22;31769;49.304;8.428;2024-01-27T05:25:00;1.80;99.90
46037;DHT22;31769;49.304;8.428;2024-01-27T05:28:00;1.80;99.90
46037;DHT22;31769;49.304;8.428;2024-01-27T05:31:01;1.90;99.90
46037;DHT22;31769;49.304;8.428;2024-01-27T05:34:02;2.00;99.90
46037;DHT22;31769;49.304;8.428;2024-01-27T05:37:03;1.90;99.90
46037;DHT22;31769;49.304;8.428;2024-01-27T05:40:04;2.00;99.90
46037;DHT22;31769;49.304;8.428;2024-01-27T05:43:06;2.00;99.90
46037;DHT22;31769;49.304;8.428;2024-01-27T05:46:09;2.00;99.90
46037;DHT22;31769;49.304;8.428;2024-01-27T05:49:10;2.00;99.90
46037;DHT22;31769;49.304;8.428;2024-01-27T05:52:10;2.00;99.90
46037;DHT22;31769;49.304;8.428;2024-01-27T05:55:11;1.90;99.90
46037;DHT22;31769;49.304;8.428;2024-01-27T05:58:13;1.70;99.90
46037;DHT22;31769;49.304;8.428;2024-01-27T06:01:14;1.70;99.90
46037;DHT22;31769;49.304;8.428;2024-01-27T06:04:15;1.70;99.90
46037;DHT22;31769;49.304;8.428;2024-01-27T06:07:15;1.50;99.90
46037;DHT22;31769;49.304;8.428;2024-01-27T06:10:16;1.40;99.90
46037;DHT22;31769;49.304;8.428;2024-01-27T06:13:18;1.40;99.90
46037;DHT22;31769;49.304;8.428;2024-01-27T06:16:19;1.40;99.90
46037;DHT22;31769;49.304;8.428;2024-01-27T06:19:20;1.40;99.90
46037;DHT22;31769;49.304;8.428;2024-01-27T06:22:21;1.30;99.90
46037;DHT22;31769;49.304;8.428;2024-01-27T06:25:22;1.30;99.90
46037;DHT22;31769;49.304;8.428;2024-01-27T06:28:22;1.30;99.90
46037;DHT22;31769;49.304;8.428;2024-01-27T06:31:23;1.30;99.90
46037;DHT22;31769;49.304;8.428;2024-01-27T06:34:24;1.30;99.90
46037;DHT22;31769;49.304;8.428;2024-01-27T06:37:24;1.40;99.90
46037;DHT22;31769;49.304;8.428;2024-01-27T06:40:25;1.40;99.90
46037;DHT22;31769;49.304;8.428;2024-01-27T06:43:26;1.30;99.90
46037;DHT22;31769;49.304;8.428;2024-01-27T06:46:27;1.20;99.90
46037;DHT22;31769;49.304;8.428;2024-01-27T06:49:28;1.20;99.90
46037;DHT22;31769;49.304;8.428;2024-01-27T06:52:28;1.20;99.90
46037;DHT22;31769;49.304;8.428;2024-01-27T06:55:29;1.20;99.90
46037;DHT22;31769;49.304;8.428;2024-01-27T06:58:30;1.30;99.90
46037;DHT22;31769;49.304;8.428;2024-01-27T07:01:31;1.30;99.90
46037;DHT22;31769;49.304;8.428;2024-01-27T07:04:31;1.30;99.90
46037;DHT22;31769;49.304;8.428;2024-01-27T07:07:32;1.30;99.90
46037;DHT22;31769;49.304;8.428;2024-01-27T07:10:33;1.30;99.90
46037;DHT22;31769;49.304;8.428;2024-01-27T07:13:34;1.30;99.90
46037;DHT22;31769;49.304;8.428;2024-01-27T07:16:35;1.30;99.90
46037;DHT22;31769;49.304;8.428;2024-01-27T07:19:36;1.30;99.90
46037;DHT22;31769;49.304;8.428;2024-01-27T07:22:36;1.30;99.90
46037;DHT22;31769;49.304;8.428;2024-01-27T07:25:38;1.40;99.90
46037;DHT22;31769;49.304;8.428;2024-01-27T07:28:38;1.50;99.90
46037;DHT22;31769;49.304;8.428;2024-01-27T07:31:39;1.40;99.90
46037;DHT22;31769;49.304;8.428;2024-01-27T07:34:43;1.40;99.90
46037;DHT22;31769;49.304;8.428;2024-01-27T07:37:44;1.40;99.90
46037;DHT22;31769;49.304;8.428;2024-01-27T07:40:45;1.50;99.90
46037;DHT22;31769;49.304;8.428;2024-01-27T07:43:46;1.40;99.90
46037;DHT22;31769;49.304;8.428;2024-01-27T07:46:47;1.50;99.90
46037;DHT22;31769;49.304;8.428;2024-01-27T07:49:48;1.70;99.90
46037;DHT22;31769;49.304;8.428;2024-01-27T07:52:49;1.90;99.90
46037;DHT22;31769;49.304;8.428;2024-01-27T07:55:50;2.00;99.90
46037;DHT22;31769;49.304;8.428;2024-01-27T07:58:51;2.10;99.90
46037;DHT22;31769;49.304;8.428;2024-01-27T08:01:52;2.20;99.90
46037;DHT22;31769;49.304;8.428;2024-01-27T08:04:53;2.30;99.90
46037;DHT22;31769;49.304;8.428;2024-01-27T08:07:54;2.40;99.90
46037;DHT22;31769;49.304;8.428;2024-01-27T08:10:54;2.50;99.90
46037;DHT22;31769;49.304;8.428;2024-01-27T08:13:55;2.70;99.90
46037;DHT22;31769;49.304;8.428;2024-01-27T08:16:56;2.80;99.90
46037;DHT22;31769;49.304;8.428;2024-01-27T08:19:57;2.90;99.90
46037;DHT22;31769;49.304;8.428;2024-01-27T08:22:58;3.00;99.90
46037;DHT22;31769;49.304;8.428;2024-01-27T08:25:59;3.10;99.90
46037;DHT22;31769;49.304;8.428;2024-01-27T08:29:00;3.20;99.90
46037;DHT22;31769;49.304;8.428;2024-01-27T08:32:00;3.20;99.90
46037;DHT22;31769;49.304;8.428;2024-01-27T08:35:01;3.30;99.90
46037;DHT22;31769;49.304;8.428;2024-01-27T08:38:02;3.20;99.90
46037;DHT22;31769;49.304;8.428;2024-01-27T08:41:04;3.20;99.90
46037;DHT22;31769;49.304;8.428;2024-01-27T08:44:05;3.30;99.90
46037;DHT22;31769;49.304;8.428;2024-01-27T08:47:06;3.30;99.90
46037;DHT22;31769;49.304;8.428;2024-01-27T08:50:07;3.30;99.90
46037;DHT22;31769;49.304;8.428;2024-01-27T08:53:08;3.20;99.90
46037;DHT22;31769;49.304;8.428;2024-01-27T08:56:09;3.10;99.90
46037;DHT22;31769;49.304;8.428;2024-01-27T08:59:10;2.80;99.90
46037;DHT22;31769;49.304;8.428;2024-01-27T09:02:11;2.90;99.90
46037;DHT22;31769;49.304;8.428;2024-01-27T09:05:12;2.80;99.90
46037;DHT22;31769;49.304;8.428;2024-01-27T09:08:12;3.00;99.90
46037;DHT22;31769;49.304;8.428;2024-01-27T09:11:13;3.30;99.90
46037;DHT22;31769;49.304;8.428;2024-01-27T09:14:14;3.60;99.90
46037;DHT22;31769;49.304;8.428;2024-01-27T09:17:15;3.70;99.90
46037;DHT22;31769;49.304;8.428;2024-01-27T09:20:16;3.90;99.90
46037;DHT22;31769;49.304;8.428;2024-01-27T09:23:17;4.00;99.90
46037;DHT22;31769;49.304;8.428;2024-01-27T09:26:17;4.20;99.90
46037;DHT22;31769;49.304;8.428;2024-01-27T09:29:19;4.20;99.90
46037;DHT22;31769;49.304;8.428;2024-01-27T09:32:20;4.30;99.90
46037;DHT22;31769;49.304;8.428;2024-01-27T09:35:21;4.30;99.90
46037;DHT22;31769;49.304;8.428;2024-01-27T09:38:22;4.40;99.90
46037;DHT22;31769;49.304;8.428;2024-01-27T09:41:23;4.50;99.90
46037;DHT22;31769;49.304;8.428;2024-01-27T09:44:25;4.70;99.90
46037;DHT22;31769;49.304;8.428;2024-01-27T09:47:27;4.90;99.90
46037;DHT22;31769;49.304;8.428;2024-01-27T09:50:28;5.10;99.90
46037;DHT22;31769;49.304;8.428;2024-01-27T09:53:29;5.30;99.90
46037;DHT22;31769;49.304;8.428;2024-01-27T09:56:31;5.40;99.90
46037;DHT22;31769;49.304;8.428;2024-01-27T09:59:33;5.50;99.90
46037;DHT22;31769;49.304;8.428;2024-01-27T10:02:34;5.60;99.90
46037;DHT22;31769;49.304;8.428;2024-01-27T10:05:35;5.70;99.90
46037;DHT22;31769;49.304;8.428;2024-01-27T10:08:37;5.80;99.90
46037;DHT22;31769;49.304;8.428;2024-01-27T10:11:39;5.80;99.90
46037;DHT22;31769;49.304;8.428;2024-01-27T10:14:42;5.90;99.90
46037;DHT22;31769;49.304;8.428;2024-01-27T10:17:45;6.10;99.90
46037;DHT22;31769;49.304;8.428;2024-01-27T10:20:46;6.20;99.90
46037;DHT22;31769;49.304;8.428;2024-01-27T10:23:48;6.30;99.90
46037;DHT22;31769;49.304;8.428;2024-01-27T10:26:49;6.40;99.90
46037;DHT22;31769;49.304;8.428;2024-01-27T10:29:54;6.50;99.90
46037;DHT22;31769;49.304;8.428;2024-01-27T10:32:56;6.60;99.90
46037;DHT22;31769;49.304;8.428;2024-01-27T10:35:59;6.50;99.90
46037;DHT22;31769;49.304;8.428;2024-01-27T10:39:00;6.70;99.90
46037;DHT22;31769;49.304;8.428;2024-01-27T10:42:02;6.70;99.90
46037;DHT22;31769;49.304;8.428;2024-01-27T10:45:05;6.90;99.90
46037;DHT22;31769;49.304;8.428;2024-01-27T10:48:07;7.00;99.90
46037;DHT22;31769;49.304;8.428;2024-01-27T10:51:09;7.10;99.90
46037;DHT22;31769;49.304;8.428;2024-01-27T10:54:14;7.10;99.90
46037;DHT22;31769;49.304;8.428;2024-01-27T10:57:17;7.30;99.90
46037;DHT22;31769;49.304;8.428;2024-01-27T11:00:19;7.40;99.90
46037;DHT22;31769;49.304;8.428;2024-01-27T11:03:21;7.40;99.90
46037;DHT22;31769;49.304;8.428;2024-01-27T11:06:22;7.50;99.90
46037;DHT22;31769;49.304;8.428;2024-01-27T11:09:24;7.70;99.90
46037;DHT22;31769;49.304;8.428;2024-01-27T11:12:26;7.70;99.90
46037;DHT22;31769;49.304;8.428;2024-01-27T11:15:27;7.90;99.90
46037;DHT22;31769;49.304;8.428;2024-01-27T11:18:28;8.10;99.90
46037;DHT22;31769;49.304;8.428;2024-01-27T11:21:30;8.40;99.90
46037;DHT22;31769;49.304;8.428;2024-01-27T11:24:31;8.70;99.90
46037;DHT22;31769;49.304;8.428;2024-01-27T11:27:32;8.90;99.90
46037;DHT22;31769;49.304;8.428;2024-01-27T11:30:32;9.20;99.90
46037;DHT22;31769;49.304;8.428;2024-01-27T11:33:43;9.60;99.90
46037;DHT22;31769;49.304;8.428;2024-01-27T11:36:44;10.10;99.90
46037;DHT22;31769;49.304;8.428;2024-01-27T11:39:45;10.50;99.90
46037;DHT22;31769;49.304;8.428;2024-01-27T11:42:55;10.90;99.90
46037;DHT22;31769;49.304;8.428;2024-01-27T11:45:58;11.50;99.90
46037;DHT22;31769;49.304;8.428;2024-01-27T11:48:59;12.20;99.90
46037;DHT22;31769;49.304;8.428;2024-01-27T11:52:00;12.90;99.90
46037;DHT22;31769;49.304;8.428;2024-01-27T11:55:01;13.80;99.90
46037;DHT22;31769;49.304;8.428;2024-01-27T11:58:01;14.80;99.90
46037;DHT22;31769;49.304;8.428;2024-01-27T12:01:02;15.70;99.90
46037;DHT22;31769;49.304;8.428;2024-01-27T12:04:04;16.90;98.80
46037;DHT22;31769;49.304;8.428;2024-01-27T12:07:06;18.50;95.30
46037;DHT22;31769;49.304;8.428;2024-01-27T12:10:07;20.10;90.50
46037;DHT22;31769;49.304;8.428;2024-01-27T12:13:08;22.10;84.90
46037;DHT22;31769;49.304;8.428;2024-01-27T12:16:09;24.00;75.80
46037;DHT22;31769;49.304;8.428;2024-01-27T12:19:10;25.60;67.30
46037;DHT22;31769;49.304;8.428;2024-01-27T12:25:23;28.00;58.20
46037;DHT22;31769;49.304;8.428;2024-01-27T12:28:24;28.70;54.70
46037;DHT22;31769;49.304;8.428;2024-01-27T12:31:25;29.10;52.10
46037;DHT22;31769;49.304;8.428;2024-01-27T12:34:26;29.50;51.70
46037;DHT22;31769;49.304;8.428;2024-01-27T12:37:27;30.30;50.00
46037;DHT22;31769;49.304;8.428;2024-01-27T12:40:28;31.10;48.20
46037;DHT22;31769;49.304;8.428;2024-01-27T12:43:29;31.90;46.70
46037;DHT22;31769;49.304;8.428;2024-01-27T12:46:30;32.20;43.70
46037;DHT22;31769;49.304;8.428;2024-01-27T12:49:32;31.80;43.10
46037;DHT22;31769;49.304;8.428;2024-01-27T12:52:33;31.60;43.30
46037;DHT22;31769;49.304;8.428;2024-01-27T12:55:33;32.00;42.20
46037;DHT22;31769;49.304;8.428;2024-01-27T12:58:35;32.30;41.40
46037;DHT22;31769;49.304;8.428;2024-01-27T13:01:35;32.10;42.40
46037;DHT22;31769;49.304;8.428;2024-01-27T13:04:37;32.50;42.30
46037;DHT22;31769;49.304;8.428;2024-01-27T13:07:38;32.40;41.60
46037;DHT22;31769;49.304;8.428;2024-01-27T13:10:38;32.70;41.50
46037;DHT22;31769;49.304;8.428;2024-01-27T13:13:40;33.00;41.60
46037;DHT22;31769;49.304;8.428;2024-01-27T13:16:41;33.20;40.80
46037;DHT22;31769;49.304;8.428;2024-01-27T13:19:42;34.10;40.80
46037;DHT22;31769;49.304;8.428;2024-01-27T13:22:43;34.30;40.00
46037;DHT22;31769;49.304;8.428;2024-01-27T13:25:45;34.50;39.30
46037;DHT22;31769;49.304;8.428;2024-01-27T13:28:46;33.40;39.80
46037;DHT22;31769;49.304;8.428;2024-01-27T13:31:49;33.00;40.60
46037;DHT22;31769;49.304;8.428;2024-01-27T13:34:50;32.80;40.00
46037;DHT22;31769;49.304;8.428;2024-01-27T13:37:50;32.10;40.90
46037;DHT22;31769;49.304;8.428;2024-01-27T13:40:51;31.40;40.80
46037;DHT22;31769;49.304;8.428;2024-01-27T13:43:52;31.10;40.40
46037;DHT22;31769;49.304;8.428;2024-01-27T13:46:52;32.00;40.60
46037;DHT22;31769;49.304;8.428;2024-01-27T13:49:54;32.00;39.80
46037;DHT22;31769;49.304;8.428;2024-01-27T13:52:55;31.90;40.10
46037;DHT22;31769;49.304;8.428;2024-01-27T13:55:55;32.00;40.20
46037;DHT22;31769;49.304;8.428;2024-01-27T13:58:56;31.80;40.50
46037;DHT22;31769;49.304;8.428;2024-01-27T14:01:57;31.60;40.50
46037;DHT22;31769;49.304;8.428;2024-01-27T14:04:58;31.30;40.70
46037;DHT22;31769;49.304;8.428;2024-01-27T14:07:59;31.00;40.20
46037;DHT22;31769;49.304;8.428;2024-01-27T14:10:59;31.30;40.10
46037;DHT22;31769;49.304;8.428;2024-01-27T14:14:00;31.70;40.00
46037;DHT22;31769;49.304;8.428;2024-01-27T14:17:01;31.60;39.90
46037;DHT22;31769;49.304;8.428;2024-01-27T14:20:03;30.50;40.00
46037;DHT22;31769;49.304;8.428;2024-01-27T14:23:06;30.10;40.80
46037;DHT22;31769;49.304;8.428;2024-01-27T14:26:07;30.30;40.60
46037;DHT22;31769;49.304;8.428;2024-01-27T14:29:14;30.70;40.30
46037;DHT22;31769;49.304;8.428;2024-01-27T14:32:17;30.70;39.70
46037;DHT22;31769;49.304;8.428;2024-01-27T14:35:18;30.10;40.10
46037;DHT22;31769;49.304;8.428;2024-01-27T14:38:18;29.90;40.40
46037;DHT22;31769;49.304;8.428;2024-01-27T14:41:20;29.80;40.70
46037;DHT22;31769;49.304;8.428;2024-01-27T14:44:21;29.60;40.70
46037;DHT22;31769;49.304;8.428;2024-01-27T14:47:23;29.60;40.80
46037;DHT22;31769;49.304;8.428;2024-01-27T14:50:23;28.90;40.90
46037;DHT22;31769;49.304;8.428;2024-01-27T14:53:25;27.50;41.40
46037;DHT22;31769;49.304;8.428;2024-01-27T14:56:26;27.00;42.20
46037;DHT22;31769;49.304;8.428;2024-01-27T14:59:27;27.20;42.10
46037;DHT22;31769;49.304;8.428;2024-01-27T15:02:29;26.80;42.20
46037;DHT22;31769;49.304;8.428;2024-01-27T15:05:30;26.50;42.80
46037;DHT22;31769;49.304;8.428;2024-01-27T15:08:31;27.30;42.50
46037;DHT22;31769;49.304;8.428;2024-01-27T15:11:32;27.80;41.70
46037;DHT22;31769;49.304;8.428;2024-01-27T15:14:32;27.70;41.70
46037;DHT22;31769;49.304;8.428;2024-01-27T15:17:33;27.10;41.30
46037;DHT22;31769;49.304;8.428;2024-01-27T15:20:37;26.40;41.90
46037;DHT22;31769;49.304;8.428;2024-01-27T15:23:38;25.40;42.70
46037;DHT22;31769;49.304;8.428;2024-01-27T15:26:38;24.80;43.70
46037;DHT22;31769;49.304;8.428;2024-01-27T15:29:39;24.00;44.60
46037;DHT22;31769;49.304;8.428;2024-01-27T15:32:40;22.80;45.90
46037;DHT22;31769;49.304;8.428;2024-01-27T15:35:41;21.00;48.20
46037;DHT22;31769;49.304;8.428;2024-01-27T15:38:42;19.40;50.40
46037;DHT22;31769;49.304;8.428;2024-01-27T15:41:43;18.20;51.90
46037;DHT22;31769;49.304;8.428;2024-01-27T15:44:43;17.20;53.30
46037;DHT22;31769;49.304;8.428;2024-01-27T15:47:44;16.20;55.10
46037;DHT22;31769;49.304;8.428;2024-01-27T15:50:45;15.10;57.00
46037;DHT22;31769;49.304;8.428;2024-01-27T15:53:47;14.60;58.80
46037;DHT22;31769;49.304;8.428;2024-01-27T15:56:48;14.60;58.60
46037;DHT22;31769;49.304;8.428;2024-01-27T15:59:49;14.50;58.90
46037;DHT22;31769;49.304;8.428;2024-01-27T16:02:50;14.00;60.00
46037;DHT22;31769;49.304;8.428;2024-01-27T16:05:51;13.20;62.40
46037;DHT22;31769;49.304;8.428;2024-01-27T16:08:51;12.50;64.30
46037;DHT22;31769;49.304;8.428;2024-01-27T16:11:52;11.80;66.40
46037;DHT22;31769;49.304;8.428;2024-01-27T16:14:54;11.30;68.90
46037;DHT22;31769;49.304;8.428;2024-01-27T16:17:55;10.90;70.60
46037;DHT22;31769;49.304;8.428;2024-01-27T16:20:56;10.50;71.70
46037;DHT22;31769;49.304;8.428;2024-01-27T16:23:57;10.20;73.40
46037;DHT22;31769;49.304;8.428;2024-01-27T16:26:58;9.90;74.50
46037;DHT22;31769;49.304;8.428;2024-01-27T16:29:58;9.60;77.20
46037;DHT22;31769;49.304;8.428;2024-01-27T16:33:00;9.40;79.20
46037;DHT22;31769;49.304;8.428;2024-01-27T16:36:01;9.30;81.60
46037;DHT22;31769;49.304;8.428;2024-01-27T16:39:01;9.20;84.20
46037;DHT22;31769;49.304;8.428;2024-01-27T16:42:04;9.00;85.50
46037;DHT22;31769;49.304;8.428;2024-01-27T16:45:05;8.90;88.00
46037;DHT22;31769;49.304;8.428;2024-01-27T16:48:10;8.80;90.10
46037;DHT22;31769;49.304;8.428;2024-01-27T16:51:10;8.70;92.40
46037;DHT22;31769;49.304;8.428;2024-01-27T16:54:11;8.60;94.20
46037;DHT22;31769;49.304;8.428;2024-01-27T16:57:15;8.50;95.40
46037;DHT22;31769;49.304;8.428;2024-01-27T17:00:16;8.40;97.60
46037;DHT22;31769;49.304;8.428;2024-01-27T17:03:16;8.30;99.90
46037;DHT22;31769;49.304;8.428;2024-01-27T17:06:17;8.20;99.90
46037;DHT22;31769;49.304;8.428;2024-01-27T17:09:18;8.10;99.90
46037;DHT22;31769;49.304;8.428;2024-01-27T17:12:19;8.00;99.90
46037;DHT22;31769;49.304;8.428;2024-01-27T17:15:19;7.90;99.90
46037;DHT22;31769;49.304;8.428;2024-01-27T17:18:21;7.80;99.90
46037;DHT22;31769;49.304;8.428;2024-01-27T17:21:21;7.80;99.90
46037;DHT22;31769;49.304;8.428;2024-01-27T17:24:22;7.70;99.90
46037;DHT22;31769;49.304;8.428;2024-01-27T17:27:23;7.60;99.90
46037;DHT22;31769;49.304;8.428;2024-01-27T17:30:24;7.50;99.90
46037;DHT22;31769;49.304;8.428;2024-01-27T17:33:25;7.40;99.90
46037;DHT22;31769;49.304;8.428;2024-01-27T17:36:27;7.40;99.90
46037;DHT22;31769;49.304;8.428;2024-01-27T17:39:28;7.30;99.90
46037;DHT22;31769;49.304;8.428;2024-01-27T17:42:29;7.30;99.90
46037;DHT22;31769;49.304;8.428;2024-01-27T17:45:30;7.20;99.90
46037;DHT22;31769;49.304;8.428;2024-01-27T17:48:30;7.20;99.90
46037;DHT22;31769;49.304;8.428;2024-01-27T17:51:31;7.10;99.90
46037;DHT22;31769;49.304;8.428;2024-01-27T17:54:32;7.00;99.90
46037;DHT22;31769;49.304;8.428;2024-01-27T17:57:33;7.00;99.90
46037;DHT22;31769;49.304;8.428;2024-01-27T18:00:34;6.90;99.90
46037;DHT22;31769;49.304;8.428;2024-01-27T18:03:35;6.80;99.90
46037;DHT22;31769;49.304;8.428;2024-01-27T18:06:35;6.80;99.90
46037;DHT22;31769;49.304;8.428;2024-01-27T18:09:37;6.80;99.90
46037;DHT22;31769;49.304;8.428;2024-01-27T18:12:37;6.70;99.90
46037;DHT22;31769;49.304;8.428;2024-01-27T18:15:38;6.70;99.90
46037;DHT22;31769;49.304;8.428;2024-01-27T18:18:39;6.60;99.90
46037;DHT22;31769;49.304;8.428;2024-01-27T18:21:40;6.50;99.90
46037;DHT22;31769;49.304;8.428;2024-01-27T18:24:41;6.50;99.90
46037;DHT22;31769;49.304;8.428;2024-01-27T18:27:42;6.50;99.90
46037;DHT22;31769;49.304;8.428;2024-01-27T18:30:43;6.40;99.90
46037;DHT22;31769;49.304;8.428;2024-01-27T18:33:44;6.40;99.90
46037;DHT22;31769;49.304;8.428;2024-01-27T18:36:46;6.30;99.90
46037;DHT22;31769;49.304;8.428;2024-01-27T18:39:47;6.20;99.90
46037;DHT22;31769;49.304;8.428;2024-01-27T18:42:48;6.10;99.90
46037;DHT22;31769;49.304;8.428;2024-01-27T18:45:48;6.10;99.90
46037;DHT22;31769;49.304;8.428;2024-01-27T18:48:49;6.00;99.90
46037;DHT22;31769;49.304;8.428;2024-01-27T18:51:50;6.00;99.90
46037;DHT22;31769;49.304;8.428;2024-01-27T18:54:51;6.00;99.90
46037;DHT22;31769;49.304;8.428;2024-01-27T18:57:52;5.90;99.90
46037;DHT22;31769;49.304;8.428;2024-01-27T19:00:52;5.90;99.90
46037;DHT22;31769;49.304;8.428;2024-01-27T19:03:53;5.90;99.90
46037;DHT22;31769;49.304;8.428;2024-01-27T19:06:54;5.90;99.90
46037;DHT22;31769;49.304;8.428;2024-01-27T19:09:55;5.90;99.90
46037;DHT22;31769;49.304;8.428;2024-01-27T19:12:55;5.90;99.90
46037;DHT22;31769;49.304;8.428;2024-01-27T19:15:56;5.90;99.90
46037;DHT22;31769;49.304;8.428;2024-01-27T19:18:57;5.80;99.90
46037;DHT22;31769;49.304;8.428;2024-01-27T19:21:58;5.80;99.90